createdAt,value
2018-05-25T00:00:54.243Z,4.80
2018-05-25T00:03:21.672Z,4.45
2018-05-25T00:05:49.085Z,6.10
2018-05-25T00:08:16.495Z,6.70
2018-05-25T00:10:43.908Z,8.02
2018-05-25T00:13:11.332Z,5.32
2018-05-25T00:15:38.753Z,6.00
2018-05-25T00:18:06.164Z,6.43
2018-05-25T00:20:33.573Z,5.45
2018-05-25T00:23:00.996Z,6.68
2018-05-25T00:25:28.405Z,5.80
2018-05-25T00:27:55.815Z,5.82
2018-05-25T00:30:23.224Z,8.43
2018-05-25T00:32:50.653Z,5.80
2018-05-25T00:35:18.057Z,4.03
2018-05-25T00:37:45.477Z,5.43
2018-05-25T00:40:12.891Z,5.45
2018-05-25T00:42:40.310Z,4.43
2018-05-25T00:45:07.721Z,5.05
2018-05-25T00:47:35.136Z,7.18
2018-05-25T00:50:02.577Z,4.40
2018-05-25T00:52:29.994Z,5.65
2018-05-25T00:55:09.208Z,3.65
2018-05-25T00:57:36.621Z,6.18
2018-05-25T01:00:04.035Z,5.10
2018-05-25T01:02:31.445Z,6.95
2018-05-25T01:04:58.852Z,3.70
2018-05-25T01:07:26.270Z,4.75
2018-05-25T01:09:53.684Z,7.35
2018-05-25T01:12:21.124Z,5.75
2018-05-25T01:14:48.534Z,7.40
2018-05-25T01:17:15.940Z,5.82
2018-05-25T01:19:43.352Z,3.78
2018-05-25T01:22:10.764Z,3.95
2018-05-25T01:24:38.180Z,6.70
2018-05-25T01:27:05.596Z,4.97
2018-05-25T01:29:33.005Z,5.03
2018-05-25T01:32:00.412Z,6.20
2018-05-25T01:34:27.833Z,4.40
2018-05-25T01:36:55.244Z,9.98
2018-05-25T01:39:22.651Z,5.15
2018-05-25T01:41:50.089Z,4.85
2018-05-25T01:44:17.500Z,2.33
2018-05-25T01:46:44.900Z,3.60
2018-05-25T01:49:12.321Z,5.20
2018-05-25T01:51:39.736Z,3.83
2018-05-25T01:54:07.154Z,5.97
2018-05-25T01:56:34.560Z,6.05
2018-05-25T01:59:01.983Z,4.53
2018-05-25T02:01:29.387Z,12.50
2018-05-25T02:03:56.796Z,7.10
2018-05-25T02:06:24.208Z,4.60
2018-05-25T02:08:51.620Z,5.32
2018-05-25T02:11:19.038Z,5.40
2018-05-25T02:13:46.462Z,6.35
2018-05-25T02:16:13.864Z,5.32
2018-05-25T02:18:41.289Z,4.65
2018-05-25T02:21:08.697Z,5.43
2018-05-25T02:23:36.114Z,4.03
2018-05-25T02:26:03.512Z,3.87
2018-05-25T02:28:30.927Z,4.50
2018-05-25T02:30:58.340Z,4.75
2018-05-25T02:33:25.781Z,5.45
2018-05-25T02:35:53.182Z,3.17
2018-05-25T02:38:20.592Z,6.05
2018-05-25T02:40:48.000Z,7.12
2018-05-25T02:43:15.412Z,4.30
2018-05-25T02:45:42.824Z,4.93
2018-05-25T02:48:10.232Z,6.50
2018-05-25T02:50:37.653Z,5.75
2018-05-25T02:53:05.059Z,5.30
2018-05-25T02:55:32.484Z,4.55
2018-05-25T02:57:59.893Z,3.55
2018-05-25T03:00:27.307Z,6.05
2018-05-25T03:02:54.708Z,4.35
2018-05-25T03:05:22.124Z,5.62
2018-05-25T03:07:49.542Z,5.50
2018-05-25T03:10:16.952Z,3.58
2018-05-25T03:12:44.369Z,4.72
2018-05-25T03:15:11.784Z,5.35
2018-05-25T03:17:39.196Z,5.30
2018-05-25T03:20:06.621Z,3.08
2018-05-25T03:22:34.028Z,4.45
2018-05-25T03:25:01.444Z,3.35
2018-05-25T03:27:28.845Z,4.43
2018-05-25T03:29:56.264Z,2.95
2018-05-25T03:32:23.668Z,5.47
2018-05-25T03:34:51.085Z,3.53
2018-05-25T03:37:18.497Z,7.20
2018-05-25T03:39:45.913Z,3.40
2018-05-25T03:42:13.319Z,7.60
2018-05-25T03:44:40.736Z,6.03
2018-05-25T03:47:08.151Z,3.47
2018-05-25T03:49:35.572Z,11.50
2018-05-25T03:52:02.979Z,6.37
2018-05-25T03:54:30.393Z,4.87
2018-05-25T03:56:57.800Z,6.80
2018-05-25T03:59:37.013Z,5.53
2018-05-25T04:02:04.426Z,7.32
2018-05-25T04:04:31.836Z,5.20
2018-05-25T04:07:00.054Z,4.15
2018-05-25T04:09:27.469Z,3.53
2018-05-25T04:11:54.872Z,4.57
2018-05-25T04:14:22.317Z,4.78
2018-05-25T04:16:49.696Z,4.00
2018-05-25T04:19:17.100Z,3.45
2018-05-25T04:21:44.516Z,4.28
2018-05-25T04:24:11.928Z,4.85
2018-05-25T04:26:39.343Z,5.30
2018-05-25T04:29:06.753Z,4.40
2018-05-25T04:31:34.164Z,6.80
2018-05-25T04:34:01.574Z,6.62
2018-05-25T04:36:28.983Z,6.12
2018-05-25T04:38:56.385Z,5.62
2018-05-25T04:41:23.801Z,5.15
2018-05-25T04:43:51.293Z,7.25
2018-05-25T04:46:18.756Z,8.02
2018-05-25T04:48:46.188Z,5.78
2018-05-25T04:51:13.666Z,5.95
2018-05-25T04:53:41.079Z,5.43
2018-05-25T04:56:08.483Z,9.55
2018-05-25T04:58:35.900Z,10.50
2018-05-25T05:01:03.398Z,5.55
2018-05-25T05:03:30.796Z,6.87
2018-05-25T05:05:58.216Z,7.78
2018-05-25T05:08:25.650Z,8.20
2018-05-25T05:10:53.076Z,7.97
2018-05-25T05:13:20.585Z,5.62
2018-05-25T05:15:48.010Z,5.43
2018-05-25T05:18:15.440Z,6.10
2018-05-25T05:20:42.856Z,5.30
2018-05-25T05:23:10.268Z,6.78
2018-05-25T05:25:37.692Z,7.87
2018-05-25T05:28:05.095Z,7.85
2018-05-25T05:30:32.512Z,6.32
2018-05-25T05:32:59.924Z,8.27
2018-05-25T05:35:27.354Z,9.80
2018-05-25T05:37:54.760Z,10.68
2018-05-25T05:40:22.178Z,8.88
2018-05-25T05:42:49.626Z,6.97
2018-05-25T05:45:17.044Z,7.45
2018-05-25T05:47:44.527Z,15.32
2018-05-25T05:50:11.988Z,8.52
2018-05-25T05:52:39.444Z,8.82
2018-05-25T05:55:06.928Z,11.63
2018-05-25T05:57:34.345Z,9.40
2018-05-25T06:00:01.753Z,5.65
2018-05-25T06:02:29.173Z,9.70
2018-05-25T06:04:56.580Z,9.73
2018-05-25T06:07:24.081Z,10.70
2018-05-25T06:09:51.528Z,9.02
2018-05-25T06:12:18.987Z,6.72
2018-05-25T06:14:46.393Z,10.35
2018-05-25T06:17:13.816Z,7.82
2018-05-25T06:19:41.235Z,12.15
2018-05-25T06:22:08.657Z,11.12
2018-05-25T06:24:36.161Z,15.20
2018-05-25T06:27:03.580Z,8.15
2018-05-25T06:29:31.004Z,12.35
2018-05-25T06:31:58.523Z,11.25
2018-05-25T06:34:25.920Z,7.90
2018-05-25T06:36:53.348Z,16.52
2018-05-25T06:39:20.764Z,11.30
2018-05-25T06:41:48.245Z,11.35
2018-05-25T06:44:15.661Z,14.40
2018-05-25T06:46:43.160Z,12.15
2018-05-25T06:49:10.620Z,13.40
2018-05-25T06:51:38.064Z,11.68
2018-05-25T06:54:05.472Z,9.38
2018-05-25T06:56:32.885Z,10.32
2018-05-25T06:59:00.328Z,8.35
2018-05-25T07:01:27.753Z,11.85
2018-05-25T07:03:55.160Z,9.30
2018-05-25T07:06:22.596Z,11.20
2018-05-25T07:08:50.089Z,12.90
2018-05-25T07:11:17.553Z,14.20
2018-05-25T07:13:44.962Z,13.90
2018-05-25T07:16:12.426Z,15.18
2018-05-25T07:18:39.839Z,24.98
2018-05-25T07:21:07.261Z,11.52
2018-05-25T07:23:34.682Z,11.98
2018-05-25T07:26:02.107Z,16.30
2018-05-25T07:28:29.521Z,16.12
2018-05-25T07:30:56.939Z,25.02
2018-05-25T07:33:24.422Z,21.30
2018-05-25T07:35:51.793Z,23.08
2018-05-25T07:38:19.225Z,24.75
2018-05-25T07:40:46.641Z,17.10
2018-05-25T07:43:14.060Z,28.48
2018-05-25T07:45:41.484Z,22.37
2018-05-25T07:48:08.910Z,27.70
2018-05-25T07:50:36.329Z,24.45
2018-05-25T07:53:03.752Z,27.25
2018-05-25T07:55:31.168Z,23.67
2018-05-25T07:57:58.589Z,17.35
2018-05-25T08:00:26.000Z,21.67
2018-05-25T08:02:53.433Z,32.20
2018-05-25T08:05:20.849Z,24.98
2018-05-25T08:07:48.273Z,27.52
2018-05-25T08:10:15.692Z,26.80
2018-05-25T08:12:43.116Z,25.23
2018-05-25T08:15:10.533Z,29.25
2018-05-25T08:17:37.972Z,34.20
2018-05-25T08:20:05.388Z,28.20
2018-05-25T08:22:32.817Z,23.80
2018-05-25T08:25:00.228Z,32.72
2018-05-25T08:27:27.672Z,33.28
2018-05-25T08:29:55.097Z,33.03
2018-05-25T08:32:22.557Z,42.35
2018-05-25T08:34:49.966Z,38.28
2018-05-25T08:37:17.400Z,32.60
2018-05-25T08:39:44.811Z,31.10
2018-05-25T08:42:12.236Z,47.20
2018-05-25T08:44:39.660Z,46.78
2018-05-25T08:47:07.158Z,47.60
2018-05-25T08:49:34.629Z,48.70
2018-05-25T08:52:02.009Z,47.90
2018-05-25T08:54:29.432Z,52.30
2018-05-25T08:56:56.884Z,48.53
2018-05-25T08:59:24.296Z,47.40
2018-05-25T09:01:51.721Z,42.05
2018-05-25T09:04:19.156Z,46.05
2018-05-25T09:06:46.591Z,60.25
2018-05-25T09:09:14.000Z,53.13
2018-05-25T09:11:41.421Z,28.87
2018-05-25T09:14:08.848Z,37.35
2018-05-25T09:16:36.268Z,42.08
2018-05-25T09:19:04.719Z,34.88
2018-05-25T09:21:32.139Z,42.35
2018-05-25T09:23:59.564Z,30.02
2018-05-25T09:26:27.085Z,51.60
2018-05-25T09:28:54.511Z,33.13
2018-05-25T09:31:21.935Z,26.50
2018-05-25T09:33:49.355Z,38.75
2018-05-25T09:36:16.778Z,45.85
2018-05-25T09:38:44.229Z,32.30
2018-05-25T09:41:11.657Z,29.90
2018-05-25T09:43:39.084Z,35.53
2018-05-25T09:46:06.604Z,42.67
2018-05-25T09:48:34.096Z,44.47
2018-05-25T09:51:01.540Z,39.55
2018-05-25T09:53:28.968Z,31.10
2018-05-25T09:55:56.384Z,45.28
2018-05-25T09:58:23.809Z,55.90
2018-05-25T10:00:51.233Z,66.22
2018-05-25T10:03:18.660Z,46.67
2018-05-25T10:05:46.072Z,44.42
2018-05-25T10:08:13.501Z,68.18
2018-05-25T10:10:40.912Z,48.85
2018-05-25T10:13:08.337Z,47.53
2018-05-25T10:15:35.753Z,40.67
2018-05-25T10:18:03.200Z,28.15
2018-05-25T10:20:30.633Z,67.90
2018-05-25T10:22:58.057Z,47.33
2018-05-25T10:25:25.486Z,51.95
2018-05-25T10:27:52.924Z,45.38
2018-05-25T10:30:20.365Z,45.38
2018-05-25T10:32:47.790Z,39.10
2018-05-25T10:35:15.200Z,49.15
2018-05-25T10:37:42.632Z,41.50
2018-05-25T10:40:10.059Z,41.37
2018-05-25T10:42:37.479Z,49.83
2018-05-25T10:45:04.921Z,63.50
2018-05-25T10:47:32.340Z,59.05
2018-05-25T10:49:59.761Z,43.38
2018-05-25T10:52:27.179Z,39.30
2018-05-25T10:54:54.602Z,47.08
2018-05-25T10:57:22.015Z,45.88
2018-05-25T10:59:49.438Z,51.78
2018-05-25T11:02:16.864Z,51.55
2018-05-25T11:04:44.290Z,44.03
2018-05-25T11:07:11.709Z,43.90
2018-05-25T11:09:39.141Z,58.97
2018-05-25T11:12:06.563Z,49.88
2018-05-25T11:14:33.991Z,63.40
2018-05-25T11:17:01.418Z,74.85
2018-05-25T11:19:28.836Z,61.50
2018-05-25T11:21:56.250Z,49.88
2018-05-25T11:24:23.686Z,56.37
2018-05-25T11:26:51.092Z,69.47
2018-05-25T11:29:18.512Z,75.05
2018-05-25T11:31:45.930Z,68.45
2018-05-25T11:34:13.384Z,75.82
2018-05-25T11:36:40.796Z,63.33
2018-05-25T11:39:08.229Z,59.08
2018-05-25T11:41:35.644Z,55.42
2018-05-25T11:44:03.064Z,80.97
2018-05-25T11:46:30.494Z,60.25
2018-05-25T11:48:57.937Z,54.22
2018-05-25T11:51:26.316Z,106.22
2018-05-25T11:53:53.748Z,90.45
2018-05-25T11:56:21.173Z,94.13
2018-05-25T11:58:48.597Z,75.60
2018-05-25T12:01:16.028Z,63.50
2018-05-25T12:03:43.487Z,73.40
2018-05-25T12:06:10.952Z,62.95
2018-05-25T12:08:38.376Z,87.80
2018-05-25T12:11:05.869Z,69.90
2018-05-25T12:13:33.313Z,95.53
2018-05-25T12:16:00.768Z,98.70
2018-05-25T12:18:28.192Z,68.53
2018-05-25T12:20:55.684Z,65.87
2018-05-25T12:23:23.104Z,88.95
2018-05-25T12:25:50.596Z,68.70
2018-05-25T12:28:18.013Z,74.87
2018-05-25T12:30:45.441Z,62.90
2018-05-25T12:33:12.956Z,84.62
2018-05-25T12:35:40.397Z,73.05
2018-05-25T12:38:07.817Z,68.78
2018-05-25T12:40:35.313Z,70.78
2018-05-25T12:43:02.789Z,85.72
2018-05-25T12:45:30.233Z,96.80
2018-05-25T12:47:57.659Z,103.20
2018-05-25T12:50:25.176Z,91.12
2018-05-25T12:52:52.599Z,50.88
2018-05-25T12:55:20.055Z,69.28
2018-05-25T12:57:47.480Z,75.32
2018-05-25T13:00:14.904Z,83.75
2018-05-25T13:02:42.315Z,72.47
2018-05-25T13:05:09.776Z,69.47
2018-05-25T13:07:37.241Z,70.37
2018-05-25T13:10:04.660Z,75.72
2018-05-25T13:12:32.145Z,66.75
2018-05-25T13:14:59.605Z,60.28
2018-05-25T13:17:27.032Z,66.20
2018-05-25T13:19:54.451Z,73.43
2018-05-25T13:22:21.876Z,81.50
2018-05-25T13:24:49.302Z,63.67
2018-05-25T13:27:16.725Z,53.80
2018-05-25T13:29:44.148Z,51.58
2018-05-25T13:32:11.569Z,74.65
2018-05-25T13:34:39.008Z,61.95
2018-05-25T13:37:06.420Z,81.60
2018-05-25T13:39:33.850Z,70.18
2018-05-25T13:42:01.274Z,78.68
2018-05-25T13:44:28.766Z,66.97
2018-05-25T13:46:56.227Z,104.00
2018-05-25T13:49:23.668Z,118.90
2018-05-25T13:51:51.096Z,106.97
2018-05-25T13:54:18.580Z,96.85
2018-05-25T13:56:46.004Z,88.93
2018-05-25T13:59:13.492Z,69.70
2018-05-25T14:01:40.916Z,97.43
2018-05-25T14:04:08.418Z,98.43
2018-05-25T14:06:35.867Z,91.60
2018-05-25T14:09:03.284Z,87.22
2018-05-25T14:11:30.788Z,104.22
2018-05-25T14:13:58.196Z,82.40
2018-05-25T14:16:25.687Z,112.47
2018-05-25T14:18:53.137Z,71.30
2018-05-25T14:21:20.561Z,62.28
2018-05-25T14:23:47.976Z,75.05
2018-05-25T14:26:15.521Z,53.30
2018-05-25T14:28:42.933Z,80.05
2018-05-25T14:31:10.405Z,72.75
2018-05-25T14:33:37.808Z,63.20
2018-05-25T14:36:05.284Z,59.60
2018-05-25T14:38:32.792Z,70.68
2018-05-25T14:41:00.237Z,62.95
2018-05-25T14:43:27.705Z,58.00
2018-05-25T14:45:55.136Z,81.78
2018-05-25T14:48:22.553Z,46.37
2018-05-25T14:50:50.027Z,74.00
2018-05-25T14:53:17.476Z,64.22
2018-05-25T14:55:44.888Z,64.05
2018-05-25T14:58:12.311Z,73.32
2018-05-25T15:00:39.740Z,60.72
2018-05-25T15:03:07.252Z,37.40
2018-05-25T15:05:34.697Z,49.67
2018-05-25T15:08:02.121Z,43.85
2018-05-25T15:10:29.549Z,55.08
2018-05-25T15:12:57.057Z,47.65
2018-05-25T15:15:24.473Z,58.55
2018-05-25T15:17:51.975Z,62.95
2018-05-25T15:20:19.412Z,53.25
2018-05-25T15:22:46.823Z,78.55
2018-05-25T15:25:14.245Z,51.55
2018-05-25T15:27:41.672Z,60.25
2018-05-25T15:30:09.095Z,50.30
2018-05-25T15:32:36.769Z,38.88
2018-05-25T15:35:04.028Z,46.05
2018-05-25T15:37:31.452Z,43.45
2018-05-25T15:39:58.877Z,53.63
2018-05-25T15:42:26.304Z,39.85
2018-05-25T15:44:53.728Z,31.77
2018-05-25T15:47:21.172Z,36.33
2018-05-25T15:49:48.596Z,38.95
2018-05-25T15:52:16.029Z,49.70
2018-05-25T15:54:43.448Z,55.17
2018-05-25T15:57:10.880Z,26.33
2018-05-25T15:59:38.300Z,37.17
2018-05-25T16:02:05.724Z,26.27
2018-05-25T16:04:33.153Z,34.38
2018-05-25T16:07:00.580Z,25.05
2018-05-25T16:09:28.006Z,29.40
2018-05-25T16:11:55.423Z,30.77
2018-05-25T16:14:22.844Z,38.63
2018-05-25T16:16:50.273Z,23.25
2018-05-25T16:19:17.684Z,28.83
2018-05-25T16:21:45.197Z,25.67
2018-05-25T16:24:12.612Z,29.70
2018-05-25T16:26:40.044Z,32.20
2018-05-25T16:29:07.463Z,24.27
2018-05-25T16:31:34.897Z,19.17
2018-05-25T16:34:02.308Z,16.23
2018-05-25T16:36:29.742Z,24.85
2018-05-25T16:38:57.159Z,21.85
2018-05-25T16:41:24.582Z,13.98
2018-05-25T16:43:51.996Z,22.70
2018-05-25T16:46:19.416Z,20.80
2018-05-25T16:48:46.839Z,26.92
2018-05-25T16:51:14.264Z,23.85
2018-05-25T16:53:41.725Z,16.65
2018-05-25T16:56:09.136Z,12.35
2018-05-25T16:58:36.632Z,14.80
2018-05-25T17:01:04.048Z,26.40
2018-05-25T17:03:31.476Z,25.12
2018-05-25T17:05:58.923Z,21.23
2018-05-25T17:08:26.320Z,16.50
2018-05-25T17:10:53.732Z,12.35
2018-05-25T17:13:21.260Z,12.23
2018-05-25T17:15:48.680Z,18.30
2018-05-25T17:18:16.105Z,8.02
2018-05-25T17:20:43.528Z,10.60
2018-05-25T17:23:10.951Z,15.43
2018-05-25T17:25:38.360Z,8.63
2018-05-25T17:28:05.792Z,38.25
2018-05-25T17:30:33.231Z,17.48
2018-05-25T17:33:00.671Z,14.90
2018-05-25T17:35:28.161Z,10.73
2018-05-25T17:37:55.574Z,8.10
2018-05-25T17:40:22.991Z,9.55
2018-05-25T17:42:50.520Z,9.38
2018-05-25T17:45:17.933Z,12.27
2018-05-25T17:47:45.360Z,12.05
2018-05-25T17:50:12.774Z,8.68
2018-05-25T17:52:40.191Z,11.02
2018-05-25T17:55:07.605Z,8.75
2018-05-25T17:57:35.045Z,8.43
2018-05-25T18:00:02.504Z,7.22
2018-05-25T18:02:29.928Z,8.02
2018-05-25T18:04:57.413Z,8.85
2018-05-25T18:07:24.866Z,6.75
2018-05-25T18:09:52.271Z,10.18
2018-05-25T18:12:19.684Z,8.65
2018-05-25T18:14:47.105Z,10.63
2018-05-25T18:17:14.522Z,8.32
2018-05-25T18:19:41.928Z,10.30
2018-05-25T18:22:09.353Z,5.57
2018-05-25T18:24:36.768Z,9.18
2018-05-25T18:27:04.200Z,5.43
2018-05-25T18:29:31.607Z,5.15
2018-05-25T18:31:59.029Z,8.25
2018-05-25T18:34:26.440Z,7.68
2018-05-25T18:36:53.844Z,8.38
2018-05-25T18:39:21.274Z,6.60
2018-05-25T18:41:48.677Z,5.43
2018-05-25T18:44:16.099Z,6.55
2018-05-25T18:46:43.512Z,4.85
2018-05-25T18:49:10.924Z,6.78
2018-05-25T18:51:38.349Z,5.82
2018-05-25T18:54:17.569Z,6.12
2018-05-25T18:56:44.977Z,7.87
2018-05-25T18:59:12.395Z,5.53
2018-05-25T19:01:39.852Z,6.07
2018-05-25T19:04:07.274Z,6.05
2018-05-25T19:06:34.723Z,7.57
2018-05-25T19:09:02.161Z,3.15
2018-05-25T19:11:29.712Z,10.00
2018-05-25T19:13:57.131Z,5.65
2018-05-25T19:16:24.546Z,7.37
2018-05-25T19:18:52.045Z,9.02
2018-05-25T19:21:19.496Z,8.07
2018-05-25T19:23:46.915Z,5.97
2018-05-25T19:26:14.325Z,6.05
2018-05-25T19:28:41.756Z,4.53
2018-05-25T19:31:09.153Z,8.25
2018-05-25T19:33:36.569Z,5.62
2018-05-25T19:36:03.980Z,6.55
2018-05-25T19:38:31.392Z,8.63
2018-05-25T19:40:58.800Z,7.12
2018-05-25T19:43:26.216Z,4.68
2018-05-25T19:45:53.625Z,4.72
2018-05-25T19:48:21.044Z,10.82
2018-05-25T19:50:48.460Z,5.93
2018-05-25T19:53:15.884Z,7.55
2018-05-25T19:55:43.301Z,3.40
2018-05-25T19:58:12.407Z,3.08
2018-05-25T20:00:43.014Z,5.35
2018-05-25T20:03:11.746Z,4.45
2018-05-25T20:05:40.429Z,6.25
2018-05-25T20:08:08.215Z,5.85
2018-05-25T20:10:35.615Z,5.93
2018-05-25T20:13:05.111Z,4.35
2018-05-25T20:15:32.511Z,5.87
2018-05-25T20:17:59.928Z,4.75
2018-05-25T20:20:27.351Z,8.60
2018-05-25T20:22:54.757Z,7.85
2018-05-25T20:25:22.178Z,14.55
2018-05-25T20:27:49.608Z,6.70
2018-05-25T20:30:17.022Z,4.30
2018-05-25T20:32:44.432Z,3.83
2018-05-25T20:35:11.848Z,4.60
2018-05-25T20:37:39.256Z,6.05
2018-05-25T20:40:06.676Z,9.95
2018-05-25T20:42:34.108Z,7.85
2018-05-25T20:45:01.520Z,14.57
2018-05-25T20:47:29.047Z,7.53
2018-05-25T20:49:56.464Z,10.00
2018-05-25T20:52:23.885Z,11.82
2018-05-25T20:54:51.316Z,8.18
2018-05-25T20:57:18.728Z,7.70
2018-05-25T20:59:46.149Z,7.28
2018-05-25T21:02:13.554Z,8.05
2018-05-25T21:04:40.965Z,3.67
2018-05-25T21:07:08.374Z,4.25
2018-05-25T21:09:35.802Z,3.70
2018-05-25T21:12:03.211Z,5.07
2018-05-25T21:14:30.629Z,8.55
2018-05-25T21:16:58.040Z,4.65
2018-05-25T21:19:25.479Z,4.45
2018-05-25T21:21:52.872Z,4.57
2018-05-25T21:24:20.281Z,4.43
2018-05-25T21:26:47.689Z,5.35
2018-05-25T21:29:15.113Z,6.25
2018-05-25T21:31:42.521Z,6.87
2018-05-25T21:34:09.941Z,6.00
2018-05-25T21:36:37.340Z,4.05
2018-05-25T21:39:05.672Z,3.28
2018-05-25T21:41:33.077Z,4.80
2018-05-25T21:44:00.494Z,3.35
2018-05-25T21:46:27.902Z,5.68
2018-05-25T21:48:55.320Z,4.20
2018-05-25T21:51:22.724Z,5.25
2018-05-25T21:53:50.168Z,3.72
2018-05-25T21:56:17.589Z,4.87
2018-05-25T21:58:44.996Z,3.28
2018-05-25T22:01:12.408Z,4.90
2018-05-25T22:03:39.822Z,5.90
2018-05-25T22:06:07.235Z,3.17
2018-05-25T22:08:34.636Z,3.00
2018-05-25T22:11:02.061Z,5.15
2018-05-25T22:13:29.468Z,3.40
2018-05-25T22:15:56.881Z,5.55
2018-05-25T22:18:24.292Z,3.60
2018-05-25T22:20:51.704Z,5.00
2018-05-25T22:23:19.116Z,24.63
2018-05-25T22:25:46.537Z,5.18
2018-05-25T22:28:13.936Z,2.95
2018-05-25T22:30:41.353Z,6.30
2018-05-25T22:33:08.767Z,3.15
2018-05-25T22:35:36.180Z,3.65
2018-05-25T22:38:03.584Z,4.55
2018-05-25T22:40:31.008Z,7.22
2018-05-25T22:43:10.208Z,7.60
2018-05-25T22:45:49.241Z,4.40
2018-05-25T22:48:28.449Z,7.43
2018-05-25T22:51:07.629Z,6.50
2018-05-25T22:56:33.843Z,6.95
2018-05-25T22:59:01.260Z,14.23
2018-05-25T23:01:28.684Z,5.32
2018-05-25T23:03:56.096Z,7.18
2018-05-25T23:06:23.504Z,8.82
2018-05-25T23:08:50.908Z,4.22
2018-05-25T23:11:18.320Z,4.90
2018-05-25T23:13:45.731Z,6.97
2018-05-25T23:16:13.146Z,7.97
2018-05-25T23:18:40.591Z,5.97
2018-05-25T23:21:07.971Z,18.37
2018-05-25T23:23:35.381Z,5.87
2018-05-25T23:26:02.792Z,9.65
2018-05-25T23:28:30.197Z,7.53
2018-05-25T23:30:57.609Z,6.00
2018-05-25T23:33:25.022Z,8.05
2018-05-25T23:35:52.443Z,11.48
2018-05-25T23:38:19.858Z,12.00
2018-05-25T23:40:47.268Z,4.25
2018-05-25T23:43:14.681Z,4.50
2018-05-25T23:45:42.096Z,8.48
2018-05-25T23:48:09.507Z,6.35
2018-05-25T23:50:36.922Z,4.40
2018-05-25T23:53:04.329Z,7.18
2018-05-25T23:55:31.753Z,7.60
2018-05-25T23:57:59.172Z,5.65
